Bedlington, United Kingdom
Current Conditions -  °F | °C
As of 9:50 AM on Saturday 29 Nov 2014 (Local Time) from EGNT Reporting Station
Haze Haze  
Wind Chill: 46°   Ceiling: 500
Heat Index: 48°   Visibility: 2.5mi
Dew Point: 48°   Wind: 5mph
Humidity: 100%   Direction: 140°SE
Pressure: 29.85"   Gusts: NA
Location:  55.13°N, 1.59°W
Report Text: EGNT 290950Z 14004KT 4000 BR OVC005 09/09 Q1011
Loading
Personal Weather Stations






























Interactive Weather Map New forecast layout! Learn more

10-Day Weather Forecast

Advertisements
Track Severe Weather on mobile